sensor_id;sensor_type;location;lat;lon;timestamp;P1;durP1;ratioP1;P2;durP2;ratioP2
23670;SDS011;12012;51.998;7.614;2023-02-27T00:00:23;6.60;;;2.72;;
23670;SDS011;12012;51.998;7.614;2023-02-27T00:02:50;7.00;;;2.92;;
23670;SDS011;12012;51.998;7.614;2023-02-27T00:05:17;6.82;;;3.45;;
23670;SDS011;12012;51.998;7.614;2023-02-27T00:07:43;5.95;;;2.75;;
23670;SDS011;12012;51.998;7.614;2023-02-27T00:10:10;7.25;;;3.00;;
23670;SDS011;12012;51.998;7.614;2023-02-27T00:12:38;5.80;;;2.80;;
23670;SDS011;12012;51.998;7.614;2023-02-27T00:15:05;6.53;;;3.00;;
23670;SDS011;12012;51.998;7.614;2023-02-27T00:17:35;8.25;;;3.53;;
23670;SDS011;12012;51.998;7.614;2023-02-27T00:20:02;6.47;;;3.38;;
23670;SDS011;12012;51.998;7.614;2023-02-27T00:22:29;7.43;;;3.13;;
23670;SDS011;12012;51.998;7.614;2023-02-27T00:24:54;6.28;;;2.85;;
23670;SDS011;12012;51.998;7.614;2023-02-27T00:27:20;6.55;;;2.92;;
23670;SDS011;12012;51.998;7.614;2023-02-27T00:29:46;6.28;;;3.30;;
23670;SDS011;12012;51.998;7.614;2023-02-27T00:32:11;8.50;;;3.60;;
23670;SDS011;12012;51.998;7.614;2023-02-27T00:34:37;6.38;;;2.88;;
23670;SDS011;12012;51.998;7.614;2023-02-27T00:37:02;5.38;;;3.38;;
23670;SDS011;12012;51.998;7.614;2023-02-27T00:39:28;6.82;;;3.28;;
23670;SDS011;12012;51.998;7.614;2023-02-27T00:41:53;6.15;;;3.13;;
23670;SDS011;12012;51.998;7.614;2023-02-27T00:44:19;10.50;;;3.70;;
23670;SDS011;12012;51.998;7.614;2023-02-27T00:46:44;6.75;;;4.07;;
23670;SDS011;12012;51.998;7.614;2023-02-27T00:49:10;10.10;;;3.50;;
23670;SDS011;12012;51.998;7.614;2023-02-27T00:51:35;7.47;;;3.13;;
23670;SDS011;12012;51.998;7.614;2023-02-27T00:54:01;10.60;;;3.50;;
23670;SDS011;12012;51.998;7.614;2023-02-27T00:56:27;7.43;;;3.50;;
23670;SDS011;12012;51.998;7.614;2023-02-27T00:58:53;9.18;;;3.90;;
23670;SDS011;12012;51.998;7.614;2023-02-27T01:01:18;9.27;;;3.63;;
23670;SDS011;12012;51.998;7.614;2023-02-27T01:03:44;11.35;;;3.97;;
23670;SDS011;12012;51.998;7.614;2023-02-27T01:06:09;16.20;;;4.68;;
23670;SDS011;12012;51.998;7.614;2023-02-27T01:08:35;7.63;;;3.40;;
23670;SDS011;12012;51.998;7.614;2023-02-27T01:11:00;6.40;;;4.10;;
23670;SDS011;12012;51.998;7.614;2023-02-27T01:13:26;6.18;;;3.38;;
23670;SDS011;12012;51.998;7.614;2023-02-27T01:15:52;5.82;;;3.70;;
23670;SDS011;12012;51.998;7.614;2023-02-27T01:18:17;8.00;;;3.42;;
23670;SDS011;12012;51.998;7.614;2023-02-27T01:20:43;10.10;;;3.97;;
23670;SDS011;12012;51.998;7.614;2023-02-27T01:23:08;5.78;;;3.40;;
23670;SDS011;12012;51.998;7.614;2023-02-27T01:25:34;7.35;;;3.95;;
23670;SDS011;12012;51.998;7.614;2023-02-27T01:27:59;6.85;;;3.50;;
23670;SDS011;12012;51.998;7.614;2023-02-27T01:30:25;7.15;;;3.35;;
23670;SDS011;12012;51.998;7.614;2023-02-27T01:32:50;6.03;;;3.70;;
23670;SDS011;12012;51.998;7.614;2023-02-27T01:35:16;4.88;;;3.35;;
23670;SDS011;12012;51.998;7.614;2023-02-27T01:37:42;5.40;;;3.38;;
23670;SDS011;12012;51.998;7.614;2023-02-27T01:40:08;6.97;;;4.40;;
23670;SDS011;12012;51.998;7.614;2023-02-27T01:42:34;6.68;;;3.85;;
23670;SDS011;12012;51.998;7.614;2023-02-27T01:47:52;10.48;;;4.28;;
23670;SDS011;12012;51.998;7.614;2023-02-27T01:50:30;8.70;;;4.55;;
23670;SDS011;12012;51.998;7.614;2023-02-27T01:52:57;12.40;;;4.30;;
23670;SDS011;12012;51.998;7.614;2023-02-27T01:55:25;6.22;;;4.10;;
23670;SDS011;12012;51.998;7.614;2023-02-27T01:57:53;8.18;;;3.75;;
23670;SDS011;12012;51.998;7.614;2023-02-27T02:00:19;6.90;;;3.88;;
23670;SDS011;12012;51.998;7.614;2023-02-27T02:02:51;7.28;;;3.55;;
23670;SDS011;12012;51.998;7.614;2023-02-27T02:05:35;5.28;;;3.63;;
23670;SDS011;12012;51.998;7.614;2023-02-27T02:08:01;7.38;;;3.80;;
23670;SDS011;12012;51.998;7.614;2023-02-27T02:10:27;7.55;;;4.00;;
23670;SDS011;12012;51.998;7.614;2023-02-27T02:12:54;5.72;;;3.90;;
23670;SDS011;12012;51.998;7.614;2023-02-27T02:15:20;7.07;;;3.90;;
23670;SDS011;12012;51.998;7.614;2023-02-27T02:31:55;10.52;;;4.50;;
23670;SDS011;12012;51.998;7.614;2023-02-27T02:37:41;12.10;;;4.32;;
23670;SDS011;12012;51.998;7.614;2023-02-27T02:43:11;9.98;;;4.45;;
23670;SDS011;12012;51.998;7.614;2023-02-27T02:48:18;8.85;;;4.28;;
23670;SDS011;12012;51.998;7.614;2023-02-27T02:51:01;9.32;;;5.03;;
23670;SDS011;12012;51.998;7.614;2023-02-27T02:56:31;7.10;;;4.05;;
23670;SDS011;12012;51.998;7.614;2023-02-27T03:01:39;9.05;;;4.30;;
23670;SDS011;12012;51.998;7.614;2023-02-27T03:04:14;10.55;;;4.45;;
23670;SDS011;12012;51.998;7.614;2023-02-27T03:06:46;6.47;;;4.00;;
23670;SDS011;12012;51.998;7.614;2023-02-27T03:09:22;8.95;;;4.32;;
23670;SDS011;12012;51.998;7.614;2023-02-27T03:12:01;8.45;;;4.78;;
23670;SDS011;12012;51.998;7.614;2023-02-27T03:14:33;8.50;;;4.53;;
23670;SDS011;12012;51.998;7.614;2023-02-27T03:17:05;7.88;;;4.70;;
23670;SDS011;12012;51.998;7.614;2023-02-27T03:19:43;9.15;;;5.18;;
23670;SDS011;12012;51.998;7.614;2023-02-27T03:22:17;9.95;;;4.65;;
23670;SDS011;12012;51.998;7.614;2023-02-27T03:24:49;6.90;;;4.45;;
23670;SDS011;12012;51.998;7.614;2023-02-27T03:27:17;11.73;;;5.20;;
23670;SDS011;12012;51.998;7.614;2023-02-27T03:29:49;11.07;;;5.07;;
23670;SDS011;12012;51.998;7.614;2023-02-27T03:32:29;10.15;;;4.88;;
23670;SDS011;12012;51.998;7.614;2023-02-27T03:35:03;9.73;;;4.88;;
23670;SDS011;12012;51.998;7.614;2023-02-27T03:37:38;9.70;;;5.32;;
23670;SDS011;12012;51.998;7.614;2023-02-27T03:42:38;6.55;;;4.88;;
23670;SDS011;12012;51.998;7.614;2023-02-27T03:45:14;11.32;;;5.65;;
23670;SDS011;12012;51.998;7.614;2023-02-27T03:47:42;10.30;;;5.50;;
23670;SDS011;12012;51.998;7.614;2023-02-27T03:50:08;8.65;;;4.78;;
23670;SDS011;12012;51.998;7.614;2023-02-27T03:52:34;8.68;;;4.70;;
23670;SDS011;12012;51.998;7.614;2023-02-27T03:55:13;10.00;;;4.28;;
23670;SDS011;12012;51.998;7.614;2023-02-27T03:57:42;9.13;;;5.30;;
23670;SDS011;12012;51.998;7.614;2023-02-27T04:00:10;13.57;;;5.53;;
23670;SDS011;12012;51.998;7.614;2023-02-27T04:02:39;10.98;;;5.47;;
23670;SDS011;12012;51.998;7.614;2023-02-27T04:05:07;8.07;;;4.38;;
23670;SDS011;12012;51.998;7.614;2023-02-27T04:07:37;11.15;;;5.53;;
23670;SDS011;12012;51.998;7.614;2023-02-27T04:19:00;10.23;;;5.55;;
23670;SDS011;12012;51.998;7.614;2023-02-27T04:27:19;9.18;;;5.10;;
23670;SDS011;12012;51.998;7.614;2023-02-27T04:33:04;16.27;;;6.30;;
23670;SDS011;12012;51.998;7.614;2023-02-27T04:35:53;11.82;;;5.15;;
23670;SDS011;12012;51.998;7.614;2023-02-27T04:38:32;10.32;;;5.20;;
23670;SDS011;12012;51.998;7.614;2023-02-27T04:43:49;9.23;;;5.22;;
23670;SDS011;12012;51.998;7.614;2023-02-27T04:46:17;10.82;;;5.80;;
23670;SDS011;12012;51.998;7.614;2023-02-27T04:49:01;10.65;;;5.78;;
23670;SDS011;12012;51.998;7.614;2023-02-27T04:51:37;11.20;;;6.22;;
23670;SDS011;12012;51.998;7.614;2023-02-27T04:54:16;17.60;;;6.65;;
23670;SDS011;12012;51.998;7.614;2023-02-27T04:56:48;14.07;;;6.10;;
23670;SDS011;12012;51.998;7.614;2023-02-27T04:59:18;16.42;;;7.93;;
23670;SDS011;12012;51.998;7.614;2023-02-27T05:04:48;13.60;;;6.72;;
23670;SDS011;12012;51.998;7.614;2023-02-27T05:07:18;14.77;;;6.88;;
23670;SDS011;12012;51.998;7.614;2023-02-27T05:09:55;15.05;;;6.55;;
23670;SDS011;12012;51.998;7.614;2023-02-27T05:12:28;14.45;;;6.90;;
23670;SDS011;12012;51.998;7.614;2023-02-27T05:20:20;10.20;;;5.82;;
23670;SDS011;12012;51.998;7.614;2023-02-27T05:22:58;11.25;;;6.40;;
23670;SDS011;12012;51.998;7.614;2023-02-27T05:25:49;10.43;;;6.10;;
23670;SDS011;12012;51.998;7.614;2023-02-27T05:28:23;11.05;;;6.10;;
23670;SDS011;12012;51.998;7.614;2023-02-27T05:31:08;9.50;;;5.23;;
23670;SDS011;12012;51.998;7.614;2023-02-27T05:33:55;11.25;;;6.32;;
23670;SDS011;12012;51.998;7.614;2023-02-27T05:36:35;9.68;;;5.88;;
23670;SDS011;12012;51.998;7.614;2023-02-27T05:39:08;9.00;;;6.05;;
23670;SDS011;12012;51.998;7.614;2023-02-27T05:41:37;10.32;;;6.35;;
23670;SDS011;12012;51.998;7.614;2023-02-27T05:44:17;14.53;;;5.90;;
23670;SDS011;12012;51.998;7.614;2023-02-27T05:46:48;11.60;;;6.57;;
23670;SDS011;12012;51.998;7.614;2023-02-27T05:49:40;15.50;;;7.00;;
23670;SDS011;12012;51.998;7.614;2023-02-27T05:52:07;12.93;;;6.55;;
23670;SDS011;12012;51.998;7.614;2023-02-27T05:57:30;11.25;;;5.68;;
23670;SDS011;12012;51.998;7.614;2023-02-27T06:02:38;11.48;;;6.45;;
23670;SDS011;12012;51.998;7.614;2023-02-27T06:05:04;9.02;;;5.65;;
23670;SDS011;12012;51.998;7.614;2023-02-27T06:07:30;19.85;;;7.57;;
23670;SDS011;12012;51.998;7.614;2023-02-27T06:09:57;17.83;;;8.32;;
23670;SDS011;12012;51.998;7.614;2023-02-27T06:12:23;12.07;;;6.45;;
23670;SDS011;12012;51.998;7.614;2023-02-27T06:14:49;14.88;;;7.50;;
23670;SDS011;12012;51.998;7.614;2023-02-27T06:17:15;15.35;;;8.00;;
23670;SDS011;12012;51.998;7.614;2023-02-27T06:19:41;15.15;;;7.53;;
23670;SDS011;12012;51.998;7.614;2023-02-27T06:22:08;13.32;;;6.88;;
23670;SDS011;12012;51.998;7.614;2023-02-27T06:24:34;12.88;;;7.47;;
23670;SDS011;12012;51.998;7.614;2023-02-27T06:27:00;14.57;;;8.30;;
23670;SDS011;12012;51.998;7.614;2023-02-27T06:29:25;14.43;;;7.60;;
23670;SDS011;12012;51.998;7.614;2023-02-27T06:31:51;9.45;;;6.38;;
23670;SDS011;12012;51.998;7.614;2023-02-27T06:34:18;11.23;;;7.03;;
23670;SDS011;12012;51.998;7.614;2023-02-27T06:36:43;9.70;;;7.57;;
23670;SDS011;12012;51.998;7.614;2023-02-27T06:39:09;13.93;;;7.22;;
23670;SDS011;12012;51.998;7.614;2023-02-27T06:41:34;17.88;;;7.80;;
23670;SDS011;12012;51.998;7.614;2023-02-27T06:44:00;11.35;;;6.60;;
23670;SDS011;12012;51.998;7.614;2023-02-27T06:46:26;14.45;;;7.15;;
23670;SDS011;12012;51.998;7.614;2023-02-27T06:48:51;11.43;;;6.78;;
23670;SDS011;12012;51.998;7.614;2023-02-27T06:51:17;13.00;;;7.72;;
23670;SDS011;12012;51.998;7.614;2023-02-27T06:53:42;14.63;;;7.28;;
23670;SDS011;12012;51.998;7.614;2023-02-27T06:56:08;12.05;;;7.30;;
23670;SDS011;12012;51.998;7.614;2023-02-27T06:58:34;14.85;;;7.22;;
23670;SDS011;12012;51.998;7.614;2023-02-27T07:00:59;20.27;;;8.23;;
23670;SDS011;12012;51.998;7.614;2023-02-27T07:03:25;14.48;;;8.15;;
23670;SDS011;12012;51.998;7.614;2023-02-27T07:05:50;12.10;;;7.72;;
23670;SDS011;12012;51.998;7.614;2023-02-27T07:08:16;16.55;;;8.27;;
23670;SDS011;12012;51.998;7.614;2023-02-27T07:10:42;14.57;;;8.23;;
23670;SDS011;12012;51.998;7.614;2023-02-27T07:13:11;12.20;;;6.90;;
23670;SDS011;12012;51.998;7.614;2023-02-27T07:15:37;13.75;;;7.88;;
23670;SDS011;12012;51.998;7.614;2023-02-27T07:18:03;14.77;;;7.90;;
23670;SDS011;12012;51.998;7.614;2023-02-27T07:20:29;13.88;;;7.32;;
23670;SDS011;12012;51.998;7.614;2023-02-27T07:22:54;13.95;;;8.63;;
23670;SDS011;12012;51.998;7.614;2023-02-27T07:25:20;14.52;;;7.93;;
23670;SDS011;12012;51.998;7.614;2023-02-27T07:27:45;13.93;;;8.23;;
23670;SDS011;12012;51.998;7.614;2023-02-27T07:30:13;14.45;;;7.05;;
23670;SDS011;12012;51.998;7.614;2023-02-27T07:32:39;15.73;;;7.35;;
23670;SDS011;12012;51.998;7.614;2023-02-27T07:35:05;16.55;;;9.13;;
23670;SDS011;12012;51.998;7.614;2023-02-27T07:37:31;11.32;;;7.88;;
23670;SDS011;12012;51.998;7.614;2023-02-27T07:39:57;15.55;;;8.27;;
23670;SDS011;12012;51.998;7.614;2023-02-27T07:42:22;12.40;;;8.00;;
23670;SDS011;12012;51.998;7.614;2023-02-27T07:44:48;13.00;;;8.35;;
23670;SDS011;12012;51.998;7.614;2023-02-27T07:47:13;19.08;;;8.70;;
23670;SDS011;12012;51.998;7.614;2023-02-27T07:49:41;16.27;;;8.07;;
23670;SDS011;12012;51.998;7.614;2023-02-27T07:52:07;11.80;;;7.10;;
23670;SDS011;12012;51.998;7.614;2023-02-27T07:54:33;14.10;;;7.90;;
23670;SDS011;12012;51.998;7.614;2023-02-27T07:56:59;15.65;;;7.78;;
23670;SDS011;12012;51.998;7.614;2023-02-27T07:59:24;13.30;;;7.40;;
23670;SDS011;12012;51.998;7.614;2023-02-27T08:01:50;12.70;;;7.70;;
23670;SDS011;12012;51.998;7.614;2023-02-27T08:04:15;11.23;;;6.85;;
23670;SDS011;12012;51.998;7.614;2023-02-27T08:06:41;12.40;;;6.97;;
23670;SDS011;12012;51.998;7.614;2023-02-27T08:09:06;12.65;;;7.68;;
23670;SDS011;12012;51.998;7.614;2023-02-27T08:11:32;11.73;;;6.53;;
23670;SDS011;12012;51.998;7.614;2023-02-27T08:13:58;12.50;;;7.25;;
23670;SDS011;12012;51.998;7.614;2023-02-27T08:16:23;11.80;;;6.10;;
23670;SDS011;12012;51.998;7.614;2023-02-27T08:18:49;14.10;;;7.35;;
23670;SDS011;12012;51.998;7.614;2023-02-27T08:21:14;12.68;;;6.78;;
23670;SDS011;12012;51.998;7.614;2023-02-27T08:23:40;10.98;;;6.45;;
23670;SDS011;12012;51.998;7.614;2023-02-27T08:26:05;10.60;;;6.28;;
23670;SDS011;12012;51.998;7.614;2023-02-27T08:28:31;11.45;;;6.20;;
23670;SDS011;12012;51.998;7.614;2023-02-27T08:30:56;10.10;;;7.38;;
23670;SDS011;12012;51.998;7.614;2023-02-27T08:33:22;11.98;;;6.68;;
23670;SDS011;12012;51.998;7.614;2023-02-27T08:35:48;8.25;;;6.13;;
23670;SDS011;12012;51.998;7.614;2023-02-27T08:38:14;12.90;;;7.25;;
23670;SDS011;12012;51.998;7.614;2023-02-27T08:40:40;9.55;;;6.28;;
23670;SDS011;12012;51.998;7.614;2023-02-27T08:43:05;9.73;;;6.00;;
23670;SDS011;12012;51.998;7.614;2023-02-27T08:45:31;9.50;;;5.93;;
23670;SDS011;12012;51.998;7.614;2023-02-27T08:47:56;10.02;;;6.15;;
23670;SDS011;12012;51.998;7.614;2023-02-27T08:50:22;7.63;;;5.95;;
23670;SDS011;12012;51.998;7.614;2023-02-27T08:52:48;7.35;;;5.88;;
23670;SDS011;12012;51.998;7.614;2023-02-27T08:55:13;8.73;;;6.03;;
23670;SDS011;12012;51.998;7.614;2023-02-27T08:57:39;10.60;;;5.40;;
23670;SDS011;12012;51.998;7.614;2023-02-27T09:00:05;12.30;;;6.03;;
23670;SDS011;12012;51.998;7.614;2023-02-27T09:02:32;10.43;;;5.18;;
23670;SDS011;12012;51.998;7.614;2023-02-27T09:04:58;8.50;;;5.55;;
23670;SDS011;12012;51.998;7.614;2023-02-27T09:07:25;13.57;;;4.70;;
23670;SDS011;12012;51.998;7.614;2023-02-27T09:09:50;8.77;;;4.28;;
23670;SDS011;12012;51.998;7.614;2023-02-27T09:12:16;10.23;;;4.88;;
23670;SDS011;12012;51.998;7.614;2023-02-27T09:14:41;8.05;;;4.75;;
23670;SDS011;12012;51.998;7.614;2023-02-27T09:17:07;7.97;;;4.75;;
23670;SDS011;12012;51.998;7.614;2023-02-27T09:19:33;10.50;;;4.15;;
23670;SDS011;12012;51.998;7.614;2023-02-27T09:21:58;8.73;;;4.45;;
23670;SDS011;12012;51.998;7.614;2023-02-27T09:24:24;6.45;;;4.22;;
23670;SDS011;12012;51.998;7.614;2023-02-27T09:26:50;11.25;;;4.35;;
23670;SDS011;12012;51.998;7.614;2023-02-27T09:29:16;7.20;;;4.22;;
23670;SDS011;12012;51.998;7.614;2023-02-27T09:31:42;8.45;;;4.90;;
23670;SDS011;12012;51.998;7.614;2023-02-27T09:34:07;8.57;;;4.78;;
23670;SDS011;12012;51.998;7.614;2023-02-27T09:36:33;8.43;;;4.47;;
23670;SDS011;12012;51.998;7.614;2023-02-27T09:38:59;7.15;;;4.20;;
23670;SDS011;12012;51.998;7.614;2023-02-27T09:43:54;6.28;;;3.88;;
23670;SDS011;12012;51.998;7.614;2023-02-27T09:46:20;10.35;;;4.63;;
23670;SDS011;12012;51.998;7.614;2023-02-27T09:51:24;5.20;;;3.63;;
23670;SDS011;12012;51.998;7.614;2023-02-27T09:53:53;5.57;;;3.45;;
23670;SDS011;12012;51.998;7.614;2023-02-27T09:59:43;8.50;;;3.40;;
23670;SDS011;12012;51.998;7.614;2023-02-27T10:07:43;5.43;;;2.75;;
23670;SDS011;12012;51.998;7.614;2023-02-27T10:10:34;5.97;;;2.65;;
23670;SDS011;12012;51.998;7.614;2023-02-27T10:13:20;6.32;;;2.70;;
23670;SDS011;12012;51.998;7.614;2023-02-27T10:16:05;5.28;;;1.90;;
23670;SDS011;12012;51.998;7.614;2023-02-27T10:21:35;5.15;;;2.00;;
23670;SDS011;12012;51.998;7.614;2023-02-27T10:26:30;7.25;;;2.20;;
23670;SDS011;12012;51.998;7.614;2023-02-27T10:29:02;5.75;;;2.30;;
23670;SDS011;12012;51.998;7.614;2023-02-27T10:31:41;5.32;;;2.53;;
23670;SDS011;12012;51.998;7.614;2023-02-27T10:34:11;8.05;;;2.70;;
23670;SDS011;12012;51.998;7.614;2023-02-27T10:36:40;8.25;;;2.70;;
23670;SDS011;12012;51.998;7.614;2023-02-27T10:39:07;6.18;;;2.88;;
23670;SDS011;12012;51.998;7.614;2023-02-27T10:41:38;6.43;;;2.25;;
23670;SDS011;12012;51.998;7.614;2023-02-27T10:44:04;4.97;;;2.28;;
23670;SDS011;12012;51.998;7.614;2023-02-27T10:46:31;3.88;;;2.20;;
23670;SDS011;12012;51.998;7.614;2023-02-27T10:48:58;6.28;;;2.15;;
23670;SDS011;12012;51.998;7.614;2023-02-27T10:51:30;6.40;;;2.00;;
23670;SDS011;12012;51.998;7.614;2023-02-27T10:56:57;4.18;;;1.65;;
23670;SDS011;12012;51.998;7.614;2023-02-27T10:59:32;5.85;;;1.92;;
23670;SDS011;12012;51.998;7.614;2023-02-27T11:02:02;5.00;;;2.22;;
23670;SDS011;12012;51.998;7.614;2023-02-27T11:04:44;4.22;;;1.95;;
23670;SDS011;12012;51.998;7.614;2023-02-27T11:07:12;8.35;;;2.63;;
23670;SDS011;12012;51.998;7.614;2023-02-27T11:09:42;3.92;;;1.90;;
23670;SDS011;12012;51.998;7.614;2023-02-27T11:12:26;4.18;;;1.90;;
23670;SDS011;12012;51.998;7.614;2023-02-27T11:14:55;4.80;;;2.33;;
23670;SDS011;12012;51.998;7.614;2023-02-27T11:17:32;5.90;;;2.40;;
23670;SDS011;12012;51.998;7.614;2023-02-27T11:19:59;5.38;;;2.22;;
23670;SDS011;12012;51.998;7.614;2023-02-27T11:22:30;7.13;;;2.75;;
23670;SDS011;12012;51.998;7.614;2023-02-27T11:27:43;4.38;;;2.08;;
23670;SDS011;12012;51.998;7.614;2023-02-27T11:30:20;4.50;;;2.30;;
23670;SDS011;12012;51.998;7.614;2023-02-27T11:32:49;3.80;;;2.10;;
23670;SDS011;12012;51.998;7.614;2023-02-27T11:37:51;3.28;;;2.22;;
23670;SDS011;12012;51.998;7.614;2023-02-27T11:40:20;5.15;;;2.53;;
23670;SDS011;12012;51.998;7.614;2023-02-27T11:42:49;5.47;;;2.35;;
23670;SDS011;12012;51.998;7.614;2023-02-27T11:47:55;3.78;;;2.22;;
23670;SDS011;12012;51.998;7.614;2023-02-27T11:50:30;3.53;;;2.35;;
23670;SDS011;12012;51.998;7.614;2023-02-27T12:04:46;3.88;;;1.92;;
23670;SDS011;12012;51.998;7.614;2023-02-27T12:09:49;3.97;;;1.73;;
23670;SDS011;12012;51.998;7.614;2023-02-27T12:12:20;4.35;;;1.92;;
23670;SDS011;12012;51.998;7.614;2023-02-27T12:14:57;2.30;;;1.75;;
23670;SDS011;12012;51.998;7.614;2023-02-27T12:17:31;3.40;;;1.83;;
23670;SDS011;12012;51.998;7.614;2023-02-27T12:22:47;3.97;;;2.10;;
23670;SDS011;12012;51.998;7.614;2023-02-27T12:25:29;3.67;;;1.92;;
23670;SDS011;12012;51.998;7.614;2023-02-27T12:28:25;4.60;;;2.17;;
23670;SDS011;12012;51.998;7.614;2023-02-27T12:33:52;3.08;;;1.75;;
23670;SDS011;12012;51.998;7.614;2023-02-27T12:36:24;3.15;;;1.67;;
23670;SDS011;12012;51.998;7.614;2023-02-27T12:38:49;3.85;;;1.85;;
23670;SDS011;12012;51.998;7.614;2023-02-27T12:47:02;3.05;;;1.70;;
23670;SDS011;12012;51.998;7.614;2023-02-27T12:52:41;4.28;;;1.67;;
23670;SDS011;12012;51.998;7.614;2023-02-27T12:55:30;7.10;;;1.63;;
23670;SDS011;12012;51.998;7.614;2023-02-27T13:00:51;3.10;;;1.38;;
23670;SDS011;12012;51.998;7.614;2023-02-27T13:06:13;2.80;;;1.35;;
23670;SDS011;12012;51.998;7.614;2023-02-27T13:17:13;3.88;;;1.60;;
23670;SDS011;12012;51.998;7.614;2023-02-27T13:19:54;2.97;;;1.40;;
23670;SDS011;12012;51.998;7.614;2023-02-27T13:25:11;4.63;;;1.90;;
23670;SDS011;12012;51.998;7.614;2023-02-27T13:27:42;5.47;;;1.92;;
23670;SDS011;12012;51.998;7.614;2023-02-27T13:30:25;3.53;;;1.88;;
23670;SDS011;12012;51.998;7.614;2023-02-27T13:32:58;5.38;;;2.38;;
23670;SDS011;12012;51.998;7.614;2023-02-27T13:35:41;4.22;;;2.15;;
23670;SDS011;12012;51.998;7.614;2023-02-27T13:38:39;4.40;;;2.05;;
23670;SDS011;12012;51.998;7.614;2023-02-27T13:43:44;4.00;;;1.95;;
23670;SDS011;12012;51.998;7.614;2023-02-27T13:46:21;3.22;;;2.00;;
23670;SDS011;12012;51.998;7.614;2023-02-27T13:49:34;3.38;;;1.98;;
23670;SDS011;12012;51.998;7.614;2023-02-27T13:51:47;6.15;;;1.95;;
23670;SDS011;12012;51.998;7.614;2023-02-27T13:59:27;5.43;;;2.20;;
23670;SDS011;12012;51.998;7.614;2023-02-27T14:01:59;5.40;;;2.33;;
23670;SDS011;12012;51.998;7.614;2023-02-27T14:04:45;3.65;;;2.10;;
23670;SDS011;12012;51.998;7.614;2023-02-27T14:07:16;6.35;;;2.28;;
23670;SDS011;12012;51.998;7.614;2023-02-27T14:09:45;2.95;;;2.10;;
23670;SDS011;12012;51.998;7.614;2023-02-27T14:12:27;7.03;;;2.38;;
23670;SDS011;12012;51.998;7.614;2023-02-27T14:14:58;4.38;;;2.00;;
23670;SDS011;12012;51.998;7.614;2023-02-27T14:19:59;3.92;;;2.53;;
23670;SDS011;12012;51.998;7.614;2023-02-27T14:22:30;4.70;;;2.45;;
23670;SDS011;12012;51.998;7.614;2023-02-27T14:25:02;3.10;;;1.98;;
23670;SDS011;12012;51.998;7.614;2023-02-27T14:35:38;4.10;;;1.70;;
23670;SDS011;12012;51.998;7.614;2023-02-27T14:38:10;3.90;;;1.60;;
23670;SDS011;12012;51.998;7.614;2023-02-27T14:40:40;2.97;;;1.80;;
23670;SDS011;12012;51.998;7.614;2023-02-27T14:43:24;4.35;;;1.52;;
23670;SDS011;12012;51.998;7.614;2023-02-27T14:46:10;3.75;;;2.00;;
23670;SDS011;12012;51.998;7.614;2023-02-27T14:48:55;4.57;;;1.88;;
23670;SDS011;12012;51.998;7.614;2023-02-27T14:51:28;3.95;;;2.15;;
23670;SDS011;12012;51.998;7.614;2023-02-27T14:54:10;4.88;;;2.38;;
23670;SDS011;12012;51.998;7.614;2023-02-27T15:02:22;3.80;;;2.17;;
23670;SDS011;12012;51.998;7.614;2023-02-27T15:04:54;3.28;;;1.85;;
23670;SDS011;12012;51.998;7.614;2023-02-27T15:07:30;3.20;;;2.15;;
23670;SDS011;12012;51.998;7.614;2023-02-27T15:09:59;3.75;;;1.95;;
23670;SDS011;12012;51.998;7.614;2023-02-27T15:12:26;3.25;;;1.90;;
23670;SDS011;12012;51.998;7.614;2023-02-27T15:14:54;5.07;;;2.10;;
23670;SDS011;12012;51.998;7.614;2023-02-27T15:17:23;3.35;;;1.92;;
23670;SDS011;12012;51.998;7.614;2023-02-27T15:19:55;3.75;;;2.00;;
23670;SDS011;12012;51.998;7.614;2023-02-27T15:22:26;3.83;;;1.80;;
23670;SDS011;12012;51.998;7.614;2023-02-27T15:24:56;3.80;;;1.80;;
23670;SDS011;12012;51.998;7.614;2023-02-27T15:27:23;5.05;;;2.20;;
23670;SDS011;12012;51.998;7.614;2023-02-27T15:29:57;5.63;;;1.80;;
23670;SDS011;12012;51.998;7.614;2023-02-27T15:34:59;4.22;;;2.22;;
23670;SDS011;12012;51.998;7.614;2023-02-27T15:37:29;4.57;;;1.88;;
23670;SDS011;12012;51.998;7.614;2023-02-27T15:39:57;4.85;;;2.00;;
23670;SDS011;12012;51.998;7.614;2023-02-27T15:42:25;3.65;;;2.13;;
23670;SDS011;12012;51.998;7.614;2023-02-27T15:44:53;5.53;;;2.10;;
23670;SDS011;12012;51.998;7.614;2023-02-27T15:47:24;4.03;;;1.88;;
23670;SDS011;12012;51.998;7.614;2023-02-27T15:49:58;5.10;;;2.20;;
23670;SDS011;12012;51.998;7.614;2023-02-27T15:52:31;2.72;;;1.95;;
23670;SDS011;12012;51.998;7.614;2023-02-27T15:55:09;6.60;;;2.30;;
23670;SDS011;12012;51.998;7.614;2023-02-27T15:57:37;2.83;;;2.15;;
23670;SDS011;12012;51.998;7.614;2023-02-27T16:00:04;5.07;;;2.28;;
23670;SDS011;12012;51.998;7.614;2023-02-27T16:05:06;2.58;;;1.58;;
23670;SDS011;12012;51.998;7.614;2023-02-27T16:07:42;3.20;;;1.70;;
23670;SDS011;12012;51.998;7.614;2023-02-27T16:10:15;4.70;;;1.90;;
23670;SDS011;12012;51.998;7.614;2023-02-27T16:12:48;3.80;;;2.00;;
23670;SDS011;12012;51.998;7.614;2023-02-27T16:20:28;2.90;;;1.77;;
23670;SDS011;12012;51.998;7.614;2023-02-27T16:26:05;3.75;;;2.33;;
23670;SDS011;12012;51.998;7.614;2023-02-27T16:28:55;4.63;;;2.25;;
23670;SDS011;12012;51.998;7.614;2023-02-27T16:31:34;3.33;;;2.15;;
23670;SDS011;12012;51.998;7.614;2023-02-27T16:34:15;4.43;;;2.20;;
23670;SDS011;12012;51.998;7.614;2023-02-27T16:36:52;4.60;;;2.78;;
23670;SDS011;12012;51.998;7.614;2023-02-27T16:39:20;4.68;;;2.42;;
23670;SDS011;12012;51.998;7.614;2023-02-27T16:41:45;3.75;;;1.90;;
23670;SDS011;12012;51.998;7.614;2023-02-27T16:44:11;3.05;;;1.75;;
23670;SDS011;12012;51.998;7.614;2023-02-27T16:46:37;3.42;;;2.15;;
23670;SDS011;12012;51.998;7.614;2023-02-27T16:49:02;6.78;;;3.08;;
23670;SDS011;12012;51.998;7.614;2023-02-27T16:51:30;8.55;;;4.13;;
23670;SDS011;12012;51.998;7.614;2023-02-27T16:53:57;5.45;;;3.10;;
23670;SDS011;12012;51.998;7.614;2023-02-27T16:56:23;4.03;;;2.53;;
23670;SDS011;12012;51.998;7.614;2023-02-27T16:58:51;4.15;;;2.38;;
23670;SDS011;12012;51.998;7.614;2023-02-27T17:01:17;4.32;;;2.55;;
23670;SDS011;12012;51.998;7.614;2023-02-27T17:03:44;4.57;;;2.45;;
23670;SDS011;12012;51.998;7.614;2023-02-27T17:06:11;3.75;;;2.45;;
23670;SDS011;12012;51.998;7.614;2023-02-27T17:08:38;5.35;;;2.85;;
23670;SDS011;12012;51.998;7.614;2023-02-27T17:11:04;4.72;;;2.40;;
23670;SDS011;12012;51.998;7.614;2023-02-27T17:13:31;6.13;;;2.70;;
23670;SDS011;12012;51.998;7.614;2023-02-27T17:16:00;3.40;;;2.60;;
23670;SDS011;12012;51.998;7.614;2023-02-27T17:18:25;4.13;;;2.60;;
23670;SDS011;12012;51.998;7.614;2023-02-27T17:20:51;4.38;;;2.78;;
23670;SDS011;12012;51.998;7.614;2023-02-27T17:23:17;6.15;;;2.97;;
23670;SDS011;12012;51.998;7.614;2023-02-27T17:25:43;7.78;;;2.88;;
23670;SDS011;12012;51.998;7.614;2023-02-27T17:28:09;6.50;;;2.50;;
23670;SDS011;12012;51.998;7.614;2023-02-27T17:30:35;6.03;;;2.97;;
23670;SDS011;12012;51.998;7.614;2023-02-27T17:33:01;6.10;;;2.90;;
23670;SDS011;12012;51.998;7.614;2023-02-27T17:35:27;6.43;;;3.40;;
23670;SDS011;12012;51.998;7.614;2023-02-27T17:37:54;5.45;;;2.70;;
23670;SDS011;12012;51.998;7.614;2023-02-27T17:40:20;6.63;;;2.53;;
23670;SDS011;12012;51.998;7.614;2023-02-27T17:42:45;7.60;;;2.70;;
23670;SDS011;12012;51.998;7.614;2023-02-27T17:45:11;5.05;;;2.65;;
23670;SDS011;12012;51.998;7.614;2023-02-27T17:47:37;4.60;;;2.60;;
23670;SDS011;12012;51.998;7.614;2023-02-27T17:50:03;3.88;;;2.67;;
23670;SDS011;12012;51.998;7.614;2023-02-27T17:52:29;5.32;;;3.28;;
23670;SDS011;12012;51.998;7.614;2023-02-27T17:54:54;5.53;;;2.53;;
23670;SDS011;12012;51.998;7.614;2023-02-27T17:57:20;5.72;;;3.47;;
23670;SDS011;12012;51.998;7.614;2023-02-27T17:59:45;6.93;;;2.90;;